KLM1852 EDDM-EHAM
Flight info
| Callsign | KLM1852 |
|---|---|
| Flight time | N/A |
| Altitude | 32000 |
| Route | GIVMI6Q GIVMI Y101 IBAGA DCT MASEK DCT MAPOX DCT NORKU |
| Aircraft | B738/M-SDE2E3FGHIRWXY/LB1 |
Departure
| Time | 2026-05-01 14:26 |
|---|---|
| Airport | Munich Airport (EDDM) |
Arrival
| Time | N/A |
|---|---|
| Airport | Amsterdam Airport Schiphol (EHAM) |
| Time | Latitude | Longitude | Altitude | Speed | Heading |
|---|---|---|---|---|---|
| 2026-05-01 13:50 | 48.35470 | 11.79748 | 1495 ft | 0 kts | 83° |
| 2026-05-01 14:15 | 48.35468 | 11.79728 | 1495 ft | 5 kts | 83° |
| 2026-05-01 14:16 | 48.35464 | 11.79677 | 1495 ft | 3 kts | 81° |
| 2026-05-01 14:16 | 48.35455 | 11.79637 | 1495 ft | 2 kts | 58° |
| 2026-05-01 14:16 | 48.35437 | 11.79611 | 1495 ft | 4 kts | 27° |
| 2026-05-01 14:16 | 48.35418 | 11.79603 | 1495 ft | 0 kts | 347° |
| 2026-05-01 14:19 | 48.35428 | 11.79600 | 1495 ft | 6 kts | 347° |
| 2026-05-01 14:19 | 48.35474 | 11.79586 | 1495 ft | 3 kts | 353° |
| 2026-05-01 14:20 | 48.35512 | 11.79579 | 1495 ft | 9 kts | 353° |
| 2026-05-01 14:20 | 48.35683 | 11.79549 | 1495 ft | 13 kts | 353° |
| 2026-05-01 14:20 | 48.35787 | 11.79531 | 1495 ft | 17 kts | 353° |
| 2026-05-01 14:21 | 48.35886 | 11.79515 | 1495 ft | 6 kts | 353° |
| 2026-05-01 14:21 | 48.35909 | 11.79448 | 1495 ft | 13 kts | 263° |
| 2026-05-01 14:21 | 48.35938 | 11.79346 | 1495 ft | 10 kts | 348° |
| 2026-05-01 14:22 | 48.36081 | 11.79296 | 1495 ft | 8 kts | 299° |
| 2026-05-01 14:22 | 48.36083 | 11.79185 | 1495 ft | 16 kts | 264° |
| 2026-05-01 14:22 | 48.36077 | 11.79105 | 1495 ft | 0 kts | 262° |
| 2026-05-01 14:22 | 48.36069 | 11.79027 | 1495 ft | 16 kts | 263° |
| 2026-05-01 14:23 | 48.36055 | 11.78843 | 1495 ft | 16 kts | 263° |
| 2026-05-01 14:23 | 48.36041 | 11.78670 | 1495 ft | 20 kts | 263° |
| 2026-05-01 14:23 | 48.36026 | 11.78466 | 1495 ft | 17 kts | 263° |
| 2026-05-01 14:23 | 48.36014 | 11.78310 | 1495 ft | 16 kts | 263° |
| 2026-05-01 14:24 | 48.35996 | 11.78069 | 1495 ft | 26 kts | 264° |
| 2026-05-01 14:24 | 48.35979 | 11.77844 | 1495 ft | 18 kts | 263° |
| 2026-05-01 14:24 | 48.35981 | 11.77697 | 1495 ft | 12 kts | 310° |
| 2026-05-01 14:24 | 48.36090 | 11.77662 | 1495 ft | 19 kts | 8° |
| 2026-05-01 14:25 | 48.36175 | 11.77761 | 1495 ft | 13 kts | 54° |
| 2026-05-01 14:25 | 48.36196 | 11.77805 | 1495 ft | 0 kts | 53° |
| 2026-05-01 14:25 | 48.36228 | 11.77868 | 1495 ft | 18 kts | 53° |
| 2026-05-01 14:25 | 48.36334 | 11.78069 | 1495 ft | 26 kts | 51° |
| 2026-05-01 14:26 | 48.36391 | 11.78297 | 1495 ft | 27 kts | 82° |
| 2026-05-01 14:26 | 48.36561 | 11.80411 | 1685 ft | 159 kts | 83° |
| 2026-05-01 14:26 | 48.36693 | 11.82122 | 2582 ft | 163 kts | 83° |
| 2026-05-01 14:27 | 48.36832 | 11.83804 | 3555 ft | 167 kts | 79° |
| 2026-05-01 14:27 | 48.37463 | 11.85427 | 4022 ft | 198 kts | 46° |
| 2026-05-01 14:27 | 48.38752 | 11.86438 | 4538 ft | 223 kts | 19° |
| 2026-05-01 14:28 | 48.41829 | 11.85743 | 6291 ft | 248 kts | 328° |
| 2026-05-01 14:28 | 48.43156 | 11.83957 | 6996 ft | 265 kts | 316° |
| 2026-05-01 14:28 | 48.44445 | 11.81897 | 7659 ft | 275 kts | 314° |
| 2026-05-01 14:28 | 48.45718 | 11.79705 | 8314 ft | 281 kts | 312° |
| 2026-05-01 14:29 | 48.47024 | 11.77418 | 8976 ft | 287 kts | 312° |
| 2026-05-01 14:29 | 48.48329 | 11.75125 | 9626 ft | 292 kts | 311° |
| 2026-05-01 14:30 | 48.52403 | 11.67932 | 11592 ft | 318 kts | 311° |
| 2026-05-01 14:30 | 48.53867 | 11.65342 | 12252 ft | 331 kts | 311° |
| 2026-05-01 14:30 | 48.55385 | 11.62657 | 12908 ft | 343 kts | 311° |
| 2026-05-01 14:31 | 48.58579 | 11.57018 | 14077 ft | 369 kts | 311° |
| 2026-05-01 14:31 | 48.59142 | 11.56023 | 14291 ft | 372 kts | 311° |